Darstellungsparameter: Aktuell verwendete Einstellungen:
Skalierung der Graphiken ... ?
xyx+y,   Skalierungsfaktor:      Skalierung: Modus: x, Faktor: 1
Darstellungszeitraum ... ?
Vom - - bis: - -   Zeitraum: 01.01.2015 - 06.01.2015
Min/Max/Avg-Anzeige ... ?
Zeige MMA aktuell
Zeige MMA Monat
Zeige MMA alles
Zeige --A aktuell
Zeige --A Monat
Zeige --A alles
Keine MMA-Anzeige
MMA:
Keine MMA-Graphiken
MMA-Basis: 01.01.2015 - 06.01.2015
Quicknavigation für Darstellung... ?
Tage:      1T, 2T, 3T, 5T -1T -2T -3T -5T +1T +2T +3T +5T
Wochen: 1W, 2W, 3W -1W -2W -3W +1W +2W +3W
Monate: 1M, 3M, 6M -1M -3M -6M +1M +3M +6M
Jahre:    1J, 3J, 5J, 10J -1J -3J -5J -10J +1J +3J +5J +10J
Nutze für die Darstellung ... ?
Originaldaten oder Mittelwerte auf ...
Stundenbasis Tagesbasis Wochenbasis
Monatsbasis Jahresbasis      Datenbasis: Original-Daten
Darstellen als:
Statistik (Auto) Statistik J:M      Darstellung:
Zur Graphik,    zurück zur Übersicht aller Sensoren.
 
Tabellarische Datenbersicht: ?
 
Sensor: Nr:Datum:Temp:Abs-Feuchte:Windchill:Wind:
Aussen-T/F 1 01-01-2015 00:15:00 2.6 C 5.79 g/m*3 2.6 C 0 km/h
2 01-01-2015 00:20:00 2.6 C 5.79 g/m*3 2.6 C 0 km/h
3 01-01-2015 00:25:00 2.6 C 5.79 g/m*3 2.6 C 0 km/h
4 01-01-2015 00:30:00 2.6 C 5.79 g/m*3 2.6 C 1.6 km/h
5 01-01-2015 00:35:00 2.7 C 5.59 g/m*3 2.7 C 0 km/h
6 01-01-2015 00:40:00 2.7 C 5.59 g/m*3 2.7 C 0 km/h
7 01-01-2015 00:45:00 2.7 C 5.59 g/m*3 2.7 C 1.6 km/h
8 01-01-2015 00:50:00 2.7 C 5.59 g/m*3 2.7 C 0 km/h
9 01-01-2015 00:55:00 2.7 C 5.59 g/m*3 2.7 C 0 km/h
10 01-01-2015 01:00:00 2.7 C 5.59 g/m*3 2.7 C 1.6 km/h
11 01-01-2015 01:05:00 2.8 C 5.63 g/m*3 2.8 C 1.6 km/h
12 01-01-2015 01:10:00 2.8 C 5.63 g/m*3 2.8 C 0 km/h
13 01-01-2015 01:15:00 2.8 C 5.63 g/m*3 2.8 C 0 km/h
14 01-01-2015 01:20:00 2.8 C 5.63 g/m*3 2.8 C 1.6 km/h
15 01-01-2015 01:25:00 2.9 C 5.67 g/m*3 2.9 C 0 km/h
16 01-01-2015 01:30:00 2.9 C 5.67 g/m*3 2.9 C 1.6 km/h
17 01-01-2015 01:35:00 2.9 C 5.67 g/m*3 2.9 C 0 km/h
18 01-01-2015 01:40:00 2.9 C 5.67 g/m*3 2.9 C 0 km/h
19 01-01-2015 01:45:00 2.9 C 5.67 g/m*3 2.9 C 1.6 km/h
20 01-01-2015 01:50:00 2.9 C 5.67 g/m*3 2.9 C 0 km/h
21 01-01-2015 01:55:00 2.9 C 5.67 g/m*3 2.9 C 0 km/h
22 01-01-2015 02:00:00 2.8 C 5.63 g/m*3 2.8 C 0 km/h
23 01-01-2015 02:05:00 2.8 C 5.63 g/m*3 2.8 C 0 km/h
24 01-01-2015 02:10:00 2.8 C 5.63 g/m*3 2.8 C 0 km/h
25 01-01-2015 02:15:00 2.8 C 5.63 g/m*3 2.8 C 0 km/h
Sensor: Nr:Datum:Temp:Abs-Feuchte:Windchill:Wind:
Aussen-T/F 26 01-01-2015 02:20:00 2.8 C 5.63 g/m*3 2.8 C 0 km/h
27 01-01-2015 02:25:00 2.8 C 5.63 g/m*3 2.8 C 0 km/h
28 01-01-2015 02:30:00 2.8 C 5.63 g/m*3 2.8 C 0 km/h
29 01-01-2015 02:35:00 2.8 C 5.63 g/m*3 2.8 C 0 km/h
30 01-01-2015 02:40:00 2.7 C 5.59 g/m*3 2.7 C 0 km/h
31 01-01-2015 02:45:00 2.7 C 5.59 g/m*3 2.7 C 0 km/h
32 01-01-2015 02:50:00 2.7 C 5.59 g/m*3 2.7 C 0 km/h
33 01-01-2015 02:55:00 2.6 C 5.56 g/m*3 2.6 C 0 km/h
34 01-01-2015 03:00:00 2.5 C 5.52 g/m*3 2.5 C 0 km/h
35 01-01-2015 03:05:00 2.4 C 5.42 g/m*3 2.4 C 0 km/h
36 01-01-2015 03:10:00 2.2 C 5.35 g/m*3 2.2 C 3.2 km/h
37 01-01-2015 03:15:00 1.9 C 5.24 g/m*3 1.9 C 3.2 km/h
38 01-01-2015 03:20:00 1.8 C 5.21 g/m*3 1.8 C 3.2 km/h
39 01-01-2015 03:25:00 1.8 C 5.26 g/m*3 1.8 C 3.2 km/h
40 01-01-2015 03:30:00 1.7 C 5.23 g/m*3 1.7 C 0 km/h
41 01-01-2015 03:35:00 1.6 C 5.19 g/m*3 1.6 C 1.6 km/h
42 01-01-2015 03:40:00 1.6 C 5.19 g/m*3 1.6 C 1.6 km/h
43 01-01-2015 03:45:00 1.4 C 5.12 g/m*3 1.4 C 3.2 km/h
44 01-01-2015 03:50:00 1.4 C 5.12 g/m*3 1.4 C 3.2 km/h
45 01-01-2015 03:55:00 1.3 C 5.09 g/m*3 1.3 C 0 km/h
46 01-01-2015 04:00:00 1.3 C 5.09 g/m*3 1.3 C 1.6 km/h
47 01-01-2015 04:05:00 1.3 C 5.09 g/m*3 1.3 C 0 km/h
48 01-01-2015 04:10:00 1.2 C 5.05 g/m*3 1.2 C 3.2 km/h
49 01-01-2015 04:15:00 1.1 C 5.02 g/m*3 1.1 C 1.6 km/h
50 01-01-2015 04:20:00 1 C 4.98 g/m*3 1 C 1.6 km/h
Sensor: Nr:Datum:Temp:Abs-Feuchte:Windchill:Wind:
Aussen-T/F 51 01-01-2015 04:25:00 0.9 C 4.95 g/m*3 0.9 C 4.8 km/h
52 01-01-2015 04:30:00 0.9 C 4.95 g/m*3 0.9 C 4.8 km/h
53 01-01-2015 04:35:00 0.9 C 4.95 g/m*3 0.9 C 1.6 km/h
54 01-01-2015 04:40:00 0.9 C 5 g/m*3 0.9 C 3.2 km/h
55 01-01-2015 04:45:00 0.9 C 5 g/m*3 0.9 C 1.6 km/h
56 01-01-2015 04:50:00 0.9 C 5 g/m*3 0.9 C 3.2 km/h
57 01-01-2015 04:55:00 1 C 5.03 g/m*3 1 C 1.6 km/h
58 01-01-2015 05:00:00 1.1 C 5.07 g/m*3 1.1 C 1.6 km/h
59 01-01-2015 05:05:00 1.2 C 5.1 g/m*3 1.2 C 3.2 km/h
60 01-01-2015 05:10:00 1.3 C 5.14 g/m*3 1.3 C 0 km/h
61 01-01-2015 05:15:00 1.4 C 5.17 g/m*3 1.4 C 1.6 km/h
62 01-01-2015 05:20:00 1.5 C 5.21 g/m*3 1.5 C 0 km/h
63 01-01-2015 05:25:00 1.5 C 5.21 g/m*3 1.5 C 0 km/h
64 01-01-2015 05:30:00 1.5 C 5.21 g/m*3 1.5 C 1.6 km/h
65 01-01-2015 05:35:00 1.6 C 5.25 g/m*3 1.6 C 0 km/h
66 01-01-2015 05:40:00 1.7 C 5.28 g/m*3 1.7 C 3.2 km/h
67 01-01-2015 05:45:00 1.7 C 5.28 g/m*3 1.7 C 0 km/h
68 01-01-2015 05:50:00 1.8 C 5.32 g/m*3 1.8 C 4.8 km/h
69 01-01-2015 05:55:00 1.8 C 5.32 g/m*3 1.8 C 3.2 km/h
70 01-01-2015 06:00:00 1.8 C 5.32 g/m*3 -0.1 C 6.4 km/h
71 01-01-2015 06:05:00 1.8 C 5.32 g/m*3 -0.1 C 6.4 km/h
72 01-01-2015 06:10:00 1.8 C 5.32 g/m*3 1.8 C 4.8 km/h
73 01-01-2015 06:15:00 1.8 C 5.32 g/m*3 1.8 C 3.2 km/h
74 01-01-2015 06:20:00 1.8 C 5.32 g/m*3 1.8 C 4.8 km/h
75 01-01-2015 06:25:00 1.8 C 5.32 g/m*3 1.8 C 3.2 km/h
Sensor: Nr:Datum:Temp:Abs-Feuchte:Windchill:Wind:
Aussen-T/F 76 01-01-2015 06:30:00 1.8 C 5.32 g/m*3 1.8 C 4.8 km/h
77 01-01-2015 06:35:00 1.8 C 5.32 g/m*3 -0.65 C 8.1 km/h
78 01-01-2015 06:40:00 1.8 C 5.32 g/m*3 1.8 C 4.8 km/h
79 01-01-2015 06:45:00 1.8 C 5.32 g/m*3 -0.1 C 6.4 km/h
80 01-01-2015 06:50:00 1.8 C 5.32 g/m*3 -0.65 C 8.1 km/h
81 01-01-2015 06:55:00 1.8 C 5.32 g/m*3 1.8 C 4.8 km/h
82 01-01-2015 07:00:00 1.8 C 5.32 g/m*3 -0.1 C 6.4 km/h
83 01-01-2015 07:05:00 1.8 C 5.32 g/m*3 1.8 C 1.6 km/h
84 01-01-2015 07:10:00 1.8 C 5.32 g/m*3 1.8 C 3.2 km/h
85 01-01-2015 07:15:00 1.8 C 5.32 g/m*3 1.8 C 3.2 km/h
86 01-01-2015 07:20:00 1.7 C 5.28 g/m*3 1.7 C 0 km/h
87 01-01-2015 07:25:00 1.7 C 5.28 g/m*3 1.7 C 3.2 km/h
88 01-01-2015 07:30:00 1.7 C 5.28 g/m*3 1.7 C 4.8 km/h
89 01-01-2015 07:35:00 1.7 C 5.28 g/m*3 1.7 C 1.6 km/h
90 01-01-2015 07:40:00 1.7 C 5.28 g/m*3 1.7 C 4.8 km/h
91 01-01-2015 07:45:00 1.6 C 5.25 g/m*3 1.6 C 3.2 km/h
92 01-01-2015 07:50:00 1.6 C 5.25 g/m*3 1.6 C 0 km/h
93 01-01-2015 07:55:00 1.6 C 5.25 g/m*3 1.6 C 3.2 km/h
94 01-01-2015 08:00:00 1.6 C 5.25 g/m*3 1.6 C 3.2 km/h
95 01-01-2015 08:05:00 1.6 C 5.25 g/m*3 1.6 C 1.6 km/h
96 01-01-2015 08:10:00 1.6 C 5.25 g/m*3 1.6 C 3.2 km/h
97 01-01-2015 08:15:00 1.6 C 5.25 g/m*3 1.6 C 1.6 km/h
98 01-01-2015 08:20:00 1.6 C 5.25 g/m*3 1.6 C 0 km/h
99 01-01-2015 08:25:00 1.5 C 5.21 g/m*3 1.5 C 1.6 km/h
100 01-01-2015 08:30:00 1.5 C 5.21 g/m*3 1.5 C 0 km/h
Sensor: Nr:Datum:Temp:Abs-Feuchte:Windchill:Wind:
Aussen-T/F 101 01-01-2015 08:35:00 1.5 C 5.21 g/m*3 1.5 C 0 km/h
102 01-01-2015 16:40:00 1.8 C 5.48 g/m*3 1.8 C 1.6 km/h
103 01-01-2015 16:45:00 1.8 C 5.48 g/m*3 1.8 C 3.2 km/h
104 01-01-2015 18:30:00 1.9 C 5.24 g/m*3 1.9 C 3.2 km/h
105 01-01-2015 18:35:00 1.8 C 5.15 g/m*3 1.8 C 1.6 km/h
106 01-01-2015 18:40:00 1.7 C 5.17 g/m*3 1.7 C 3.2 km/h
107 01-01-2015 18:45:00 1.6 C 5.14 g/m*3 1.6 C 0 km/h
108 01-01-2015 18:50:00 1.6 C 5.14 g/m*3 1.6 C 0 km/h
109 01-01-2015 18:55:00 1.5 C 5.1 g/m*3 1.5 C 0 km/h
110 01-01-2015 19:00:00 1.3 C 5.03 g/m*3 1.3 C 0 km/h
111 01-01-2015 19:05:00 1.2 C 5 g/m*3 1.2 C 1.6 km/h
112 01-01-2015 19:10:00 1.2 C 5 g/m*3 1.2 C 3.2 km/h
113 01-01-2015 19:15:00 1.2 C 5.05 g/m*3 1.2 C 3.2 km/h
114 01-01-2015 19:20:00 1.1 C 4.96 g/m*3 1.1 C 1.6 km/h
115 01-01-2015 19:25:00 1.1 C 4.96 g/m*3 1.1 C 3.2 km/h
116 01-01-2015 19:30:00 1.1 C 4.96 g/m*3 1.1 C 1.6 km/h
117 02-01-2015 03:25:00 2.2 C 4.96 g/m*3 -0.99 C 11.3 km/h
118 02-01-2015 03:30:00 2.2 C 4.96 g/m*3 2.2 C 1.6 km/h
119 02-01-2015 03:35:00 2.2 C 4.96 g/m*3 -0.61 C 9.7 km/h
120 02-01-2015 05:05:00 3.2 C 4.94 g/m*3 -0.1 C 12.9 km/h
121 02-01-2015 05:10:00 3.2 C 4.94 g/m*3 0.22 C 11.3 km/h
122 02-01-2015 05:15:00 3.2 C 4.94 g/m*3 -1.32 C 20.9 km/h
123 02-01-2015 05:20:00 3.2 C 4.94 g/m*3 0.22 C 11.3 km/h
124 02-01-2015 05:25:00 3.2 C 4.94 g/m*3 0.22 C 11.3 km/h
125 02-01-2015 05:30:00 3.2 C 4.94 g/m*3 -0.39 C 14.5 km/h
Sensor: Nr:Datum:Temp:Abs-Feuchte:Windchill:Wind:
Aussen-T/F 126 02-01-2015 06:25:00 3.6 C 4.95 g/m*3 -0.15 C 16.1 km/h
127 02-01-2015 06:30:00 3.4 C 4.95 g/m*3 -0.14 C 14.5 km/h
128 02-01-2015 06:35:00 3.3 C 4.97 g/m*3 -1.57 C 24.1 km/h
129 02-01-2015 06:40:00 3.3 C 4.97 g/m*3 -0.76 C 17.7 km/h
130 02-01-2015 06:45:00 3.3 C 5.04 g/m*3 -1.19 C 20.9 km/h
131 02-01-2015 06:50:00 3.2 C 5 g/m*3 -1.11 C 19.3 km/h
132 02-01-2015 06:55:00 3.2 C 5 g/m*3 -1.87 C 25.7 km/h
133 02-01-2015 07:00:00 3.3 C 5.04 g/m*3 -1.74 C 25.7 km/h
134 02-01-2015 07:05:00 3.2 C 5 g/m*3 -1.51 C 22.5 km/h
135 02-01-2015 07:10:00 3.2 C 5 g/m*3 -0.89 C 17.7 km/h
136 02-01-2015 07:15:00 3.2 C 5.06 g/m*3 0.22 C 11.3 km/h
137 02-01-2015 07:20:00 3.1 C 5.03 g/m*3 -1.64 C 22.5 km/h
138 02-01-2015 07:25:00 3.1 C 5.09 g/m*3 -1.45 C 20.9 km/h
139 02-01-2015 07:30:00 3.1 C 5.09 g/m*3 -2.18 C 27.4 km/h
140 02-01-2015 07:35:00 3 C 5.05 g/m*3 -0.9 C 16.1 km/h
141 02-01-2015 07:40:00 3 C 5.05 g/m*3 -0.34 C 12.9 km/h
142 02-01-2015 07:45:00 2.9 C 5.08 g/m*3 -0.76 C 14.5 km/h
143 02-01-2015 07:50:00 2.9 C 5.08 g/m*3 -0.46 C 12.9 km/h
144 02-01-2015 07:55:00 2.9 C 5.08 g/m*3 -0.76 C 14.5 km/h
145 02-01-2015 08:00:00 2.8 C 5.1 g/m*3 -2.02 C 22.5 km/h
146 02-01-2015 08:05:00 2.8 C 5.1 g/m*3 0.52 C 8.1 km/h
147 02-01-2015 08:10:00 2.8 C 5.1 g/m*3 -0.26 C 11.3 km/h
148 02-01-2015 08:15:00 2.8 C 5.1 g/m*3 -1.61 C 19.3 km/h
149 02-01-2015 08:20:00 2.7 C 5.13 g/m*3 -2.34 C 24.1 km/h
150 02-01-2015 08:25:00 2.8 C 5.16 g/m*3 -1.61 C 19.3 km/h
Sensor: Nr:Datum:Temp:Abs-Feuchte:Windchill:Wind:
Aussen-T/F 151 02-01-2015 08:30:00 2.8 C 5.16 g/m*3 -0.88 C 14.5 km/h
152 02-01-2015 08:35:00 2.8 C 5.16 g/m*3 -1.39 C 17.7 km/h
153 02-01-2015 08:40:00 2.7 C 5.13 g/m*3 -1.95 C 20.9 km/h
154 02-01-2015 08:45:00 2.8 C 5.16 g/m*3 -2.57 C 27.4 km/h
155 02-01-2015 08:50:00 2.8 C 5.22 g/m*3 -1.39 C 17.7 km/h
156 02-01-2015 08:55:00 2.7 C 5.19 g/m*3 -1.74 C 19.3 km/h
157 02-01-2015 09:00:00 2.7 C 5.19 g/m*3 -1.51 C 17.7 km/h
158 02-01-2015 09:05:00 2.7 C 5.24 g/m*3 -1.27 C 16.1 km/h
159 02-01-2015 09:10:00 2.7 C 5.24 g/m*3 -2.15 C 22.5 km/h
160 02-01-2015 09:15:00 2.7 C 5.24 g/m*3 -2.15 C 22.5 km/h
161 02-01-2015 09:20:00 2.7 C 5.24 g/m*3 -1.95 C 20.9 km/h
162 02-01-2015 09:25:00 2.7 C 5.24 g/m*3 -2.34 C 24.1 km/h
163 02-01-2015 09:30:00 2.7 C 5.3 g/m*3 -2.34 C 24.1 km/h
164 02-01-2015 09:35:00 2.7 C 5.3 g/m*3 -1.27 C 16.1 km/h
165 02-01-2015 09:40:00 2.7 C 5.24 g/m*3 -2.34 C 24.1 km/h
166 02-01-2015 09:45:00 2.8 C 5.28 g/m*3 -2.39 C 25.7 km/h
167 02-01-2015 09:50:00 2.8 C 5.28 g/m*3 -1.39 C 17.7 km/h
168 02-01-2015 09:55:00 2.8 C 5.28 g/m*3 -1.83 C 20.9 km/h
169 02-01-2015 10:00:00 2.9 C 5.32 g/m*3 -1.02 C 16.1 km/h
170 02-01-2015 10:05:00 2.9 C 5.32 g/m*3 -2.26 C 25.7 km/h
171 02-01-2015 10:10:00 3 C 5.35 g/m*3 -1.77 C 22.5 km/h
172 02-01-2015 10:15:00 3.1 C 5.39 g/m*3 -1.83 C 24.1 km/h
173 02-01-2015 10:20:00 3.1 C 5.39 g/m*3 -1.45 C 20.9 km/h
174 02-01-2015 10:25:00 3.2 C 5.42 g/m*3 -1.7 C 24.1 km/h
175 02-01-2015 10:30:00 3.2 C 5.42 g/m*3 -0.89 C 17.7 km/h
Sensor: Nr:Datum:Temp:Abs-Feuchte:Windchill:Wind:
Aussen-T/F 176 02-01-2015 10:35:00 3.3 C 5.4 g/m*3 -0.76 C 17.7 km/h
177 02-01-2015 10:40:00 3.3 C 5.4 g/m*3 -1.19 C 20.9 km/h
178 02-01-2015 10:45:00 3.3 C 5.4 g/m*3 -0.99 C 19.3 km/h
179 02-01-2015 10:50:00 3.3 C 5.4 g/m*3 -0.76 C 17.7 km/h
180 02-01-2015 10:55:00 3.4 C 5.44 g/m*3 -1.44 C 24.1 km/h
181 02-01-2015 11:00:00 3.4 C 5.44 g/m*3 -0.64 C 17.7 km/h
182 02-01-2015 11:05:00 3.5 C 5.47 g/m*3 -0.28 C 16.1 km/h
183 02-01-2015 11:10:00 3.5 C 5.47 g/m*3 -1.49 C 25.7 km/h
184 02-01-2015 11:15:00 3.5 C 5.47 g/m*3 0.58 C 11.3 km/h
185 02-01-2015 11:20:00 3.6 C 5.51 g/m*3 -1.01 C 22.5 km/h
186 02-01-2015 11:25:00 3.6 C 5.51 g/m*3 -1.19 C 24.1 km/h
187 02-01-2015 11:30:00 3.7 C 5.55 g/m*3 -0.88 C 22.5 km/h
188 02-01-2015 11:35:00 3.7 C 5.55 g/m*3 -1.23 C 25.7 km/h
189 02-01-2015 11:40:00 3.7 C 5.55 g/m*3 -0.69 C 20.9 km/h
190 02-01-2015 11:45:00 3.8 C 5.58 g/m*3 -0.75 C 22.5 km/h
191 02-01-2015 11:50:00 3.8 C 5.58 g/m*3 -0.56 C 20.9 km/h
192 02-01-2015 11:55:00 3.9 C 5.62 g/m*3 -0.97 C 25.7 km/h
193 02-01-2015 12:00:00 3.9 C 5.62 g/m*3 -0.23 C 19.3 km/h
194 02-01-2015 12:05:00 4.1 C 5.7 g/m*3 0.47 C 16.1 km/h
195 02-01-2015 12:10:00 4.1 C 5.7 g/m*3 0.47 C 16.1 km/h
196 02-01-2015 12:15:00 4.1 C 5.7 g/m*3 0.02 C 19.3 km/h
197 02-01-2015 12:20:00 4.2 C 5.73 g/m*3 0.15 C 19.3 km/h
198 02-01-2015 12:25:00 4.2 C 5.73 g/m*3 0.36 C 17.7 km/h
199 02-01-2015 12:30:00 4.2 C 5.73 g/m*3 0.36 C 17.7 km/h
200 02-01-2015 12:35:00 4.3 C 5.77 g/m*3 0.49 C 17.7 km/h
Sensor: Nr:Datum:Temp:Abs-Feuchte:Windchill:Wind:
Aussen-T/F 201 02-01-2015 12:40:00 4.3 C 5.77 g/m*3 -0.11 C 22.5 km/h
202 02-01-2015 12:45:00 4.4 C 5.81 g/m*3 0.61 C 17.7 km/h
203 02-01-2015 12:50:00 4.5 C 5.85 g/m*3 0.74 C 17.7 km/h
204 02-01-2015 12:55:00 4.6 C 5.89 g/m*3 0.86 C 17.7 km/h
205 02-01-2015 13:00:00 4.6 C 5.89 g/m*3 0.45 C 20.9 km/h
206 02-01-2015 13:05:00 4.5 C 5.85 g/m*3 0.33 C 20.9 km/h
207 02-01-2015 13:10:00 4.5 C 5.85 g/m*3 0.96 C 16.1 km/h
208 02-01-2015 13:15:00 4.6 C 5.89 g/m*3 0.86 C 17.7 km/h
209 02-01-2015 13:20:00 4.6 C 5.96 g/m*3 0.86 C 17.7 km/h
210 02-01-2015 13:25:00 4.7 C 5.93 g/m*3 0.22 C 24.1 km/h
211 02-01-2015 13:30:00 4.7 C 5.93 g/m*3 0.78 C 19.3 km/h
212 02-01-2015 13:35:00 4.6 C 5.89 g/m*3 0.65 C 19.3 km/h
213 02-01-2015 13:40:00 4.6 C 5.96 g/m*3 1.34 C 14.5 km/h
214 02-01-2015 13:45:00 4.6 C 5.96 g/m*3 0.45 C 20.9 km/h
215 02-01-2015 13:50:00 4.6 C 5.96 g/m*3 0.65 C 19.3 km/h
216 02-01-2015 13:55:00 4.6 C 5.96 g/m*3 1.09 C 16.1 km/h
217 02-01-2015 14:00:00 4.5 C 5.92 g/m*3 1.21 C 14.5 km/h
218 02-01-2015 14:05:00 4.5 C 5.92 g/m*3 1.79 C 11.3 km/h
219 02-01-2015 14:10:00 4.5 C 5.92 g/m*3 0.96 C 16.1 km/h
220 02-01-2015 14:15:00 4.5 C 5.92 g/m*3 0.14 C 22.5 km/h
221 02-01-2015 14:20:00 4.5 C 5.98 g/m*3 1.79 C 11.3 km/h
222 02-01-2015 14:25:00 4.5 C 5.98 g/m*3 0.52 C 19.3 km/h
223 02-01-2015 14:30:00 4.6 C 6.02 g/m*3 1.09 C 16.1 km/h
224 02-01-2015 14:35:00 4.6 C 6.02 g/m*3 0.1 C 24.1 km/h
225 02-01-2015 14:40:00 4.6 C 6.02 g/m*3 0.45 C 20.9 km/h
Sensor: Nr:Datum:Temp:Abs-Feuchte:Windchill:Wind:
Aussen-T/F 226 02-01-2015 14:45:00 4.6 C 6.02 g/m*3 1.09 C 16.1 km/h
227 02-01-2015 14:50:00 4.6 C 6.02 g/m*3 1.34 C 14.5 km/h
228 02-01-2015 14:55:00 4.5 C 5.98 g/m*3 1.21 C 14.5 km/h
229 02-01-2015 15:00:00 4.5 C 6.05 g/m*3 0.96 C 16.1 km/h
230 02-01-2015 15:05:00 4.4 C 6.07 g/m*3 1.09 C 14.5 km/h
231 02-01-2015 15:10:00 4.4 C 6.07 g/m*3 0.84 C 16.1 km/h
232 02-01-2015 15:15:00 4.4 C 6.07 g/m*3 1.36 C 12.9 km/h
233 02-01-2015 15:20:00 4.4 C 6.07 g/m*3 2.01 C 9.7 km/h
234 02-01-2015 15:25:00 4.4 C 6.14 g/m*3 0.84 C 16.1 km/h
235 02-01-2015 15:30:00 4.4 C 6.14 g/m*3 1.09 C 14.5 km/h
236 02-01-2015 15:35:00 4.4 C 6.07 g/m*3 1.67 C 11.3 km/h
237 02-01-2015 15:40:00 4.4 C 6.14 g/m*3 0.61 C 17.7 km/h
238 02-01-2015 15:45:00 4.4 C 6.14 g/m*3 1.09 C 14.5 km/h
239 02-01-2015 15:50:00 4.4 C 6.14 g/m*3 2.01 C 9.7 km/h
240 02-01-2015 15:55:00 4.4 C 6.14 g/m*3 1.67 C 11.3 km/h
241 02-01-2015 16:00:00 4.3 C 6.1 g/m*3 0.97 C 14.5 km/h
242 02-01-2015 16:05:00 4.3 C 6.1 g/m*3 1.24 C 12.9 km/h
243 02-01-2015 16:10:00 4.3 C 6.1 g/m*3 1.89 C 9.7 km/h
244 02-01-2015 16:15:00 4.3 C 6.1 g/m*3 2.29 C 8.1 km/h
245 02-01-2015 16:20:00 4.3 C 6.1 g/m*3 0.97 C 14.5 km/h
246 02-01-2015 16:25:00 4.3 C 6.1 g/m*3 0.72 C 16.1 km/h
247 02-01-2015 16:30:00 4.4 C 6.14 g/m*3 0.2 C 20.9 km/h
248 02-01-2015 16:35:00 4.5 C 6.18 g/m*3 1.21 C 14.5 km/h
249 02-01-2015 16:40:00 4.5 C 6.11 g/m*3 0.74 C 17.7 km/h
250 02-01-2015 16:45:00 4.4 C 6.07 g/m*3 1.36 C 12.9 km/h
Sensor: Nr:Datum:Temp:Abs-Feuchte:Windchill:Wind:
Aussen-T/F 251 02-01-2015 16:50:00 4.4 C 6.07 g/m*3 1.36 C 12.9 km/h
252 02-01-2015 16:55:00 4.3 C 6.03 g/m*3 1.24 C 12.9 km/h
253 02-01-2015 17:00:00 4.3 C 6.1 g/m*3 0.07 C 20.9 km/h
254 02-01-2015 17:05:00 4.3 C 6.1 g/m*3 0.97 C 14.5 km/h
255 02-01-2015 17:10:00 4.3 C 6.1 g/m*3 2.29 C 8.1 km/h
256 02-01-2015 17:15:00 4.3 C 6.1 g/m*3 2.29 C 8.1 km/h
257 02-01-2015 23:30:00 2.4 C 5.2 g/m*3 2.4 C 3.2 km/h
258 02-01-2015 23:35:00 2.5 C 5.23 g/m*3 0.71 C 6.4 km/h
259 02-01-2015 23:40:00 2.6 C 5.27 g/m*3 0.82 C 6.4 km/h
260 02-01-2015 23:45:00 2.6 C 5.27 g/m*3 2.6 C 4.8 km/h
261 02-01-2015 23:50:00 2.4 C 5.14 g/m*3 0.59 C 6.4 km/h
262 02-01-2015 23:55:00 2.4 C 5.14 g/m*3 2.4 C 1.6 km/h
263 03-01-2015 00:00:00 2.2 C 5.13 g/m*3 2.2 C 1.6 km/h
264 03-01-2015 00:05:00 2 C 5.06 g/m*3 2 C 1.6 km/h
265 03-01-2015 00:10:00 1.8 C 5.04 g/m*3 1.8 C 4.8 km/h
266 03-01-2015 00:15:00 1.8 C 5.04 g/m*3 1.8 C 3.2 km/h
267 03-01-2015 00:20:00 1.8 C 5.1 g/m*3 1.8 C 3.2 km/h
268 03-01-2015 00:25:00 1.9 C 5.13 g/m*3 0.01 C 6.4 km/h
269 03-01-2015 00:30:00 2.1 C 5.2 g/m*3 0.24 C 6.4 km/h
270 03-01-2015 00:35:00 2.2 C 5.18 g/m*3 0.36 C 6.4 km/h
271 03-01-2015 00:40:00 2.3 C 5.16 g/m*3 2.3 C 4.8 km/h
272 03-01-2015 00:45:00 2.5 C 5.23 g/m*3 -0.62 C 11.3 km/h
273 03-01-2015 00:50:00 2.6 C 5.21 g/m*3 0.82 C 6.4 km/h
274 03-01-2015 00:55:00 2.5 C 5.17 g/m*3 2.5 C 4.8 km/h
275 03-01-2015 01:00:00 2.4 C 5.14 g/m*3 2.4 C 3.2 km/h
Sensor: Nr:Datum:Temp:Abs-Feuchte:Windchill:Wind:
Aussen-T/F 276 03-01-2015 01:05:00 2.4 C 5.14 g/m*3 0.59 C 6.4 km/h
277 03-01-2015 01:10:00 2.3 C 5.1 g/m*3 2.3 C 4.8 km/h
278 03-01-2015 01:15:00 2.4 C 5.2 g/m*3 0.59 C 6.4 km/h
279 03-01-2015 01:20:00 2.5 C 5.17 g/m*3 -0.62 C 11.3 km/h
280 03-01-2015 01:25:00 2.5 C 5.17 g/m*3 0.17 C 8.1 km/h
281 03-01-2015 01:30:00 2.4 C 5.14 g/m*3 0.59 C 6.4 km/h
282 03-01-2015 01:35:00 2.4 C 5.14 g/m*3 -0.37 C 9.7 km/h
283 03-01-2015 01:40:00 2.5 C 5.17 g/m*3 -0.62 C 11.3 km/h
284 03-01-2015 01:45:00 2.5 C 5.17 g/m*3 0.71 C 6.4 km/h
285 03-01-2015 01:50:00 2.5 C 5.17 g/m*3 0.17 C 8.1 km/h
286 03-01-2015 01:55:00 2.6 C 5.21 g/m*3 -0.14 C 9.7 km/h
287 03-01-2015 02:00:00 2.6 C 5.21 g/m*3 0.29 C 8.1 km/h
288 03-01-2015 02:05:00 2.7 C 5.24 g/m*3 -0.71 C 12.9 km/h
289 03-01-2015 02:10:00 2.7 C 5.24 g/m*3 0.4 C 8.1 km/h
290 03-01-2015 02:15:00 2.7 C 5.24 g/m*3 -0.02 C 9.7 km/h
291 03-01-2015 02:20:00 2.7 C 5.24 g/m*3 -0.02 C 9.7 km/h
292 03-01-2015 02:25:00 2.7 C 5.24 g/m*3 0.4 C 8.1 km/h
293 03-01-2015 02:30:00 2.7 C 5.24 g/m*3 -0.02 C 9.7 km/h
294 03-01-2015 02:35:00 2.8 C 5.28 g/m*3 -0.26 C 11.3 km/h
295 03-01-2015 02:40:00 2.8 C 5.28 g/m*3 0.1 C 9.7 km/h
296 03-01-2015 02:45:00 2.8 C 5.22 g/m*3 0.1 C 9.7 km/h
297 03-01-2015 02:50:00 2.8 C 5.22 g/m*3 -0.26 C 11.3 km/h
298 03-01-2015 02:55:00 2.8 C 5.22 g/m*3 0.1 C 9.7 km/h
299 03-01-2015 03:00:00 2.8 C 5.22 g/m*3 0.1 C 9.7 km/h
300 03-01-2015 04:30:00 2.5 C 5.29 g/m*3 -0.62 C 11.3 km/h
Sensor: Nr:Datum:Temp:Abs-Feuchte:Windchill:Wind:
Aussen-T/F 301 03-01-2015 04:35:00 2.5 C 5.29 g/m*3 -0.26 C 9.7 km/h
302 03-01-2015 04:40:00 2.5 C 5.29 g/m*3 -0.95 C 12.9 km/h
303 03-01-2015 04:45:00 2.4 C 5.25 g/m*3 -0.74 C 11.3 km/h
304 03-01-2015 04:50:00 2.4 C 5.25 g/m*3 -1.07 C 12.9 km/h
305 03-01-2015 04:55:00 2.4 C 5.25 g/m*3 -1.37 C 14.5 km/h
306 03-01-2015 05:00:00 2.4 C 5.31 g/m*3 -1.07 C 12.9 km/h
307 03-01-2015 05:05:00 2.4 C 5.31 g/m*3 -0.74 C 11.3 km/h
308 03-01-2015 05:10:00 2.5 C 5.35 g/m*3 -0.26 C 9.7 km/h
309 03-01-2015 05:15:00 2.5 C 5.35 g/m*3 -0.95 C 12.9 km/h
310 03-01-2015 05:20:00 2.5 C 5.35 g/m*3 -0.62 C 11.3 km/h
311 03-01-2015 05:25:00 2.6 C 5.38 g/m*3 -0.14 C 9.7 km/h
312 03-01-2015 05:30:00 2.6 C 5.38 g/m*3 0.29 C 8.1 km/h
313 03-01-2015 05:35:00 2.6 C 5.38 g/m*3 0.29 C 8.1 km/h
314 03-01-2015 06:00:00 2.6 C 5.79 g/m*3 2.6 C 1.6 km/h
315 03-01-2015 06:05:00 2.6 C 5.38 g/m*3 2.6 C 0 km/h
316 03-01-2015 06:10:00 2.6 C 5.38 g/m*3 2.6 C 4.8 km/h
317 03-01-2015 06:15:00 2.6 C 5.38 g/m*3 2.6 C 0 km/h
318 03-01-2015 06:20:00 2.5 C 5.35 g/m*3 2.5 C 0 km/h
319 03-01-2015 06:25:00 2.5 C 5.4 g/m*3 2.5 C 0 km/h
320 03-01-2015 06:30:00 2.5 C 5.4 g/m*3 2.5 C 1.6 km/h
321 03-01-2015 07:45:00 3 C 5.59 g/m*3 3 C 0 km/h
322 03-01-2015 07:50:00 3.1 C 5.63 g/m*3 3.1 C 0 km/h
323 03-01-2015 07:55:00 3.1 C 5.63 g/m*3 3.1 C 0 km/h
324 03-01-2015 11:25:00 4.2 C 5.86 g/m*3 0.84 C 14.5 km/h
325 03-01-2015 11:30:00 4.2 C 5.86 g/m*3 1.77 C 9.7 km/h
Sensor: Nr:Datum:Temp:Abs-Feuchte:Windchill:Wind:
Aussen-T/F 326 03-01-2015 11:35:00 4.2 C 5.86 g/m*3 4.2 C 4.8 km/h
327 03-01-2015 11:40:00 4.2 C 5.86 g/m*3 1.43 C 11.3 km/h
328 03-01-2015 11:45:00 4.2 C 5.86 g/m*3 1.77 C 9.7 km/h
329 03-01-2015 12:45:00 3.6 C 5.76 g/m*3 3.6 C 0 km/h
330 03-01-2015 12:50:00 3.6 C 5.76 g/m*3 3.6 C 1.6 km/h
331 03-01-2015 14:05:00 2.1 C 5.31 g/m*3 2.1 C 0 km/h
332 03-01-2015 14:10:00 2 C 5.28 g/m*3 2 C 0 km/h
333 03-01-2015 14:15:00 1.9 C 5.24 g/m*3 1.9 C 0 km/h
334 03-01-2015 14:20:00 1.8 C 5.21 g/m*3 1.8 C 0 km/h
335 03-01-2015 14:25:00 1.8 C 5.21 g/m*3 1.8 C 0 km/h
336 03-01-2015 14:30:00 1.7 C 5.17 g/m*3 1.7 C 0 km/h
337 03-01-2015 14:35:00 1.6 C 5.14 g/m*3 1.6 C 0 km/h
338 03-01-2015 14:40:00 1.6 C 5.14 g/m*3 1.6 C 0 km/h
339 03-01-2015 14:45:00 1.5 C 5.16 g/m*3 1.5 C 0 km/h
340 03-01-2015 14:50:00 1.6 C 5.19 g/m*3 1.6 C 0 km/h
341 03-01-2015 14:55:00 1.6 C 5.19 g/m*3 1.6 C 0 km/h
342 03-01-2015 15:00:00 1.6 C 5.19 g/m*3 1.6 C 0 km/h
343 03-01-2015 15:05:00 1.7 C 5.23 g/m*3 1.7 C 0 km/h
344 03-01-2015 15:10:00 1.7 C 5.23 g/m*3 1.7 C 0 km/h
345 03-01-2015 15:15:00 1.7 C 5.23 g/m*3 1.7 C 0 km/h
346 03-01-2015 15:20:00 1.7 C 5.23 g/m*3 1.7 C 0 km/h
347 03-01-2015 17:40:00 1.8 C 5.26 g/m*3 1.8 C 0 km/h
348 03-01-2015 17:45:00 1.6 C 5.19 g/m*3 1.6 C 0 km/h
349 03-01-2015 17:50:00 1.6 C 5.25 g/m*3 1.6 C 0 km/h
350 03-01-2015 17:55:00 1.6 C 5.25 g/m*3 1.6 C 0 km/h
Sensor: Nr:Datum:Temp:Abs-Feuchte:Windchill:Wind:
Aussen-T/F 351 03-01-2015 18:00:00 1.6 C 5.25 g/m*3 1.6 C 0 km/h
352 03-01-2015 18:05:00 1.6 C 5.25 g/m*3 1.6 C 1.6 km/h
353 03-01-2015 18:10:00 1.7 C 5.28 g/m*3 1.7 C 0 km/h
354 03-01-2015 18:15:00 1.7 C 5.28 g/m*3 1.7 C 3.2 km/h
355 03-01-2015 18:20:00 1.7 C 5.28 g/m*3 1.7 C 0 km/h
356 03-01-2015 18:25:00 1.6 C 5.25 g/m*3 1.6 C 0 km/h
357 03-01-2015 18:30:00 1.4 C 5.17 g/m*3 1.4 C 0 km/h
358 03-01-2015 18:35:00 1.3 C 5.14 g/m*3 1.3 C 0 km/h
359 03-01-2015 18:40:00 1.3 C 5.14 g/m*3 1.3 C 0 km/h
360 03-01-2015 18:45:00 1.2 C 5.1 g/m*3 1.2 C 0 km/h
361 03-01-2015 18:50:00 1.2 C 5.1 g/m*3 1.2 C 0 km/h
362 03-01-2015 18:55:00 1.2 C 5.1 g/m*3 1.2 C 0 km/h
363 03-01-2015 19:00:00 1.1 C 5.07 g/m*3 1.1 C 0 km/h
364 03-01-2015 19:05:00 1.1 C 5.07 g/m*3 1.1 C 0 km/h
365 03-01-2015 19:10:00 1.1 C 5.07 g/m*3 1.1 C 0 km/h
366 03-01-2015 19:15:00 1 C 5.03 g/m*3 1 C 0 km/h
367 03-01-2015 19:20:00 1 C 5.03 g/m*3 1 C 0 km/h
368 03-01-2015 19:25:00 1 C 5.03 g/m*3 1 C 0 km/h
369 03-01-2015 19:30:00 0.9 C 5 g/m*3 0.9 C 0 km/h
370 03-01-2015 19:35:00 1 C 5.03 g/m*3 1 C 0 km/h
371 03-01-2015 19:40:00 1 C 5.03 g/m*3 1 C 0 km/h
372 03-01-2015 19:45:00 1 C 5.03 g/m*3 1 C 0 km/h
373 03-01-2015 19:50:00 1 C 5.03 g/m*3 1 C 0 km/h
374 03-01-2015 19:55:00 1 C 5.03 g/m*3 1 C 0 km/h
375 03-01-2015 20:00:00 1 C 5.03 g/m*3 1 C 0 km/h
Sensor: Nr:Datum:Temp:Abs-Feuchte:Windchill:Wind:
Aussen-T/F 376 03-01-2015 20:05:00 1 C 5.03 g/m*3 1 C 0 km/h
377 03-01-2015 20:10:00 0.9 C 5 g/m*3 0.9 C 0 km/h
378 03-01-2015 20:15:00 0.9 C 5 g/m*3 0.9 C 0 km/h
379 03-01-2015 20:20:00 0.9 C 5 g/m*3 0.9 C 0 km/h
380 03-01-2015 20:25:00 0.9 C 5 g/m*3 0.9 C 0 km/h
381 03-01-2015 20:30:00 0.9 C 5 g/m*3 0.9 C 0 km/h
382 03-01-2015 20:35:00 0.8 C 4.97 g/m*3 0.8 C 0 km/h
383 03-01-2015 20:40:00 0.9 C 5 g/m*3 0.9 C 0 km/h
384 03-01-2015 20:45:00 0.8 C 5.02 g/m*3 0.8 C 0 km/h
385 03-01-2015 20:50:00 0.9 C 5.05 g/m*3 0.9 C 0 km/h
386 03-01-2015 20:55:00 0.9 C 5.05 g/m*3 0.9 C 0 km/h
387 03-01-2015 21:00:00 0.9 C 5.05 g/m*3 0.9 C 1.6 km/h
388 03-01-2015 21:05:00 0.9 C 5.05 g/m*3 0.9 C 3.2 km/h
389 03-01-2015 21:10:00 0.9 C 5.05 g/m*3 -1.14 C 6.4 km/h
390 03-01-2015 21:15:00 0.9 C 5.05 g/m*3 0.9 C 3.2 km/h
391 03-01-2015 21:20:00 1 C 5.09 g/m*3 1 C 3.2 km/h
392 03-01-2015 21:25:00 1.1 C 5.12 g/m*3 1.1 C 0 km/h
393 03-01-2015 21:30:00 1.2 C 5.16 g/m*3 1.2 C 4.8 km/h
394 03-01-2015 21:35:00 1.3 C 5.19 g/m*3 -0.68 C 6.4 km/h
395 03-01-2015 21:40:00 1.3 C 5.19 g/m*3 1.3 C 4.8 km/h
396 03-01-2015 21:45:00 1.3 C 5.19 g/m*3 1.3 C 4.8 km/h
397 03-01-2015 21:50:00 1.3 C 5.19 g/m*3 1.3 C 3.2 km/h
398 03-01-2015 21:55:00 1.3 C 5.19 g/m*3 1.3 C 1.6 km/h
399 03-01-2015 22:00:00 1.3 C 5.19 g/m*3 1.3 C 4.8 km/h
400 03-01-2015 22:05:00 1.3 C 5.19 g/m*3 1.3 C 1.6 km/h
Sensor: Nr:Datum:Temp:Abs-Feuchte:Windchill:Wind:
Aussen-T/F 401 03-01-2015 22:10:00 1.3 C 5.19 g/m*3 1.3 C 4.8 km/h
402 03-01-2015 22:15:00 1.4 C 5.23 g/m*3 1.4 C 4.8 km/h
403 03-01-2015 22:20:00 1.5 C 5.26 g/m*3 1.5 C 3.2 km/h
404 03-01-2015 22:25:00 1.4 C 5.23 g/m*3 1.4 C 4.8 km/h
405 03-01-2015 22:30:00 1.4 C 5.23 g/m*3 1.4 C 3.2 km/h
406 03-01-2015 22:35:00 1.6 C 5.3 g/m*3 1.6 C 4.8 km/h
407 03-01-2015 22:40:00 1.6 C 5.3 g/m*3 1.6 C 1.6 km/h
408 03-01-2015 22:45:00 1.7 C 5.34 g/m*3 1.7 C 4.8 km/h
409 03-01-2015 22:50:00 1.8 C 5.37 g/m*3 -0.65 C 8.1 km/h
410 03-01-2015 22:55:00 1.8 C 5.37 g/m*3 -0.65 C 8.1 km/h
411 03-01-2015 23:00:00 1.9 C 5.41 g/m*3 0.01 C 6.4 km/h
412 03-01-2015 23:05:00 1.9 C 5.41 g/m*3 -0.54 C 8.1 km/h
413 03-01-2015 23:10:00 2 C 5.39 g/m*3 2 C 4.8 km/h
414 03-01-2015 23:15:00 2 C 5.39 g/m*3 2 C 3.2 km/h
415 03-01-2015 23:20:00 2 C 5.39 g/m*3 2 C 0 km/h
416 03-01-2015 23:25:00 1.9 C 5.35 g/m*3 1.9 C 4.8 km/h
417 03-01-2015 23:30:00 1.9 C 5.35 g/m*3 1.9 C 0 km/h
418 03-01-2015 23:35:00 2 C 5.39 g/m*3 0.13 C 6.4 km/h
419 03-01-2015 23:40:00 2 C 5.39 g/m*3 2 C 1.6 km/h
420 03-01-2015 23:45:00 2 C 5.39 g/m*3 2 C 4.8 km/h
421 03-01-2015 23:50:00 2 C 5.39 g/m*3 0.13 C 6.4 km/h
422 03-01-2015 23:55:00 2 C 5.39 g/m*3 2 C 3.2 km/h
423 04-01-2015 00:00:00 2 C 5.39 g/m*3 2 C 1.6 km/h
424 04-01-2015 00:05:00 2 C 5.39 g/m*3 2 C 3.2 km/h
425 04-01-2015 00:10:00 2 C 5.39 g/m*3 2 C 3.2 km/h
Sensor: Nr:Datum:Temp:Abs-Feuchte:Windchill:Wind:
Aussen-T/F 426 04-01-2015 00:15:00 2.1 C 5.43 g/m*3 0.24 C 6.4 km/h
427 04-01-2015 00:20:00 2.2 C 5.46 g/m*3 2.2 C 1.6 km/h
428 04-01-2015 00:25:00 2.1 C 5.43 g/m*3 2.1 C 4.8 km/h
429 04-01-2015 00:30:00 2.1 C 5.43 g/m*3 2.1 C 4.8 km/h
430 04-01-2015 00:35:00 2 C 5.39 g/m*3 2 C 3.2 km/h
431 04-01-2015 00:40:00 2 C 5.39 g/m*3 0.13 C 6.4 km/h
432 04-01-2015 00:45:00 2.1 C 5.43 g/m*3 0.24 C 6.4 km/h
433 04-01-2015 00:50:00 2.1 C 5.43 g/m*3 2.1 C 3.2 km/h
434 04-01-2015 00:55:00 2.1 C 5.43 g/m*3 2.1 C 4.8 km/h
435 04-01-2015 01:00:00 2.2 C 5.52 g/m*3 2.2 C 3.2 km/h
436 04-01-2015 01:05:00 2.2 C 5.52 g/m*3 2.2 C 1.6 km/h
437 04-01-2015 01:10:00 2.2 C 5.52 g/m*3 2.2 C 1.6 km/h
438 04-01-2015 01:15:00 2.2 C 5.52 g/m*3 2.2 C 0 km/h
439 04-01-2015 01:20:00 2.2 C 5.52 g/m*3 2.2 C 1.6 km/h
440 04-01-2015 01:25:00 2.2 C 5.52 g/m*3 2.2 C 4.8 km/h
441 04-01-2015 01:30:00 2.2 C 5.52 g/m*3 2.2 C 3.2 km/h
442 04-01-2015 01:35:00 2.3 C 5.56 g/m*3 2.3 C 4.8 km/h
443 04-01-2015 01:40:00 2.4 C 5.6 g/m*3 2.4 C 3.2 km/h
444 04-01-2015 01:45:00 2.7 C 5.71 g/m*3 2.7 C 4.8 km/h
445 04-01-2015 01:50:00 2.8 C 5.75 g/m*3 0.1 C 9.7 km/h
446 04-01-2015 01:55:00 2.9 C 5.79 g/m*3 2.9 C 4.8 km/h
447 04-01-2015 02:00:00 3.1 C 5.87 g/m*3 0.46 C 9.7 km/h
448 04-01-2015 02:05:00 3.3 C 5.95 g/m*3 3.3 C 4.8 km/h
449 04-01-2015 02:10:00 3.4 C 5.99 g/m*3 3.4 C 4.8 km/h
450 04-01-2015 02:15:00 3.4 C 5.92 g/m*3 3.4 C 4.8 km/h
Sensor: Nr:Datum:Temp:Abs-Feuchte:Windchill:Wind:
Aussen-T/F 451 04-01-2015 02:20:00 3.6 C 6 g/m*3 1.46 C 8.1 km/h
452 04-01-2015 02:25:00 3.7 C 6.04 g/m*3 1.58 C 8.1 km/h
453 04-01-2015 02:30:00 3.7 C 6.04 g/m*3 3.7 C 1.6 km/h
454 04-01-2015 02:35:00 3.7 C 5.98 g/m*3 3.7 C 3.2 km/h
455 04-01-2015 02:40:00 3.8 C 6.02 g/m*3 0.63 C 12.9 km/h
456 04-01-2015 02:45:00 3.9 C 6.06 g/m*3 1.06 C 11.3 km/h
457 04-01-2015 02:50:00 4.1 C 6.08 g/m*3 2.55 C 6.4 km/h
458 04-01-2015 02:55:00 4.1 C 6.08 g/m*3 2.55 C 6.4 km/h
459 04-01-2015 03:00:00 4.1 C 6.08 g/m*3 2.55 C 6.4 km/h
460 04-01-2015 03:05:00 4.1 C 6.08 g/m*3 0.72 C 14.5 km/h
461 04-01-2015 03:10:00 4.1 C 6.02 g/m*3 2.05 C 8.1 km/h
462 04-01-2015 03:15:00 4.1 C 6.02 g/m*3 4.1 C 4.8 km/h
463 04-01-2015 03:20:00 4.1 C 6.02 g/m*3 2.55 C 6.4 km/h
464 04-01-2015 03:25:00 4.1 C 5.95 g/m*3 2.05 C 8.1 km/h
465 04-01-2015 03:30:00 4.1 C 5.95 g/m*3 0.72 C 14.5 km/h
466 04-01-2015 03:35:00 4.1 C 5.95 g/m*3 1.65 C 9.7 km/h
467 04-01-2015 03:40:00 4.1 C 5.95 g/m*3 2.05 C 8.1 km/h
468 04-01-2015 03:45:00 4 C 5.91 g/m*3 1.93 C 8.1 km/h
469 04-01-2015 03:50:00 4 C 5.91 g/m*3 1.93 C 8.1 km/h
470 04-01-2015 03:55:00 4 C 5.91 g/m*3 1.53 C 9.7 km/h
471 04-01-2015 04:00:00 3.9 C 5.87 g/m*3 1.82 C 8.1 km/h
472 04-01-2015 04:05:00 3.9 C 5.87 g/m*3 3.9 C 4.8 km/h
473 04-01-2015 04:10:00 3.9 C 5.87 g/m*3 1.82 C 8.1 km/h
474 04-01-2015 04:50:00 2.9 C 5.55 g/m*3 2.9 C 4.8 km/h
475 04-01-2015 04:55:00 2.8 C 5.51 g/m*3 2.8 C 4.8 km/h
Sensor: Nr:Datum:Temp:Abs-Feuchte:Windchill:Wind:
Aussen-T/F 476 04-01-2015 05:00:00 2.6 C 5.44 g/m*3 2.6 C 0 km/h
477 04-01-2015 05:05:00 2.4 C 5.37 g/m*3 2.4 C 4.8 km/h
478 04-01-2015 05:10:00 2.2 C 5.29 g/m*3 2.2 C 4.8 km/h
479 04-01-2015 05:15:00 2.1 C 5.31 g/m*3 -0.3 C 8.1 km/h
480 04-01-2015 05:20:00 2.1 C 5.31 g/m*3 2.1 C 3.2 km/h
481 04-01-2015 05:25:00 2.1 C 5.37 g/m*3 2.1 C 3.2 km/h
482 04-01-2015 05:30:00 2 C 5.33 g/m*3 2 C 4.8 km/h
483 04-01-2015 05:35:00 2 C 5.33 g/m*3 2 C 3.2 km/h
484 04-01-2015 05:40:00 1.9 C 5.3 g/m*3 1.9 C 4.8 km/h
485 04-01-2015 05:45:00 1.8 C 5.26 g/m*3 1.8 C 4.8 km/h
486 04-01-2015 05:50:00 1.7 C 5.23 g/m*3 1.7 C 3.2 km/h
487 04-01-2015 05:55:00 1.7 C 5.23 g/m*3 -0.22 C 6.4 km/h
488 04-01-2015 06:00:00 1.6 C 5.19 g/m*3 1.6 C 4.8 km/h
489 04-01-2015 06:05:00 1.6 C 5.25 g/m*3 1.6 C 4.8 km/h
490 04-01-2015 06:10:00 1.6 C 5.25 g/m*3 1.6 C 4.8 km/h
491 04-01-2015 06:15:00 1.5 C 5.16 g/m*3 1.5 C 4.8 km/h
492 04-01-2015 06:20:00 1.4 C 5.12 g/m*3 1.4 C 1.6 km/h
493 04-01-2015 06:25:00 1.4 C 5.17 g/m*3 1.4 C 4.8 km/h
494 04-01-2015 06:30:00 1.3 C 5.14 g/m*3 1.3 C 0 km/h
495 04-01-2015 06:35:00 1.2 C 5.05 g/m*3 1.2 C 1.6 km/h
496 04-01-2015 06:40:00 1.2 C 5.05 g/m*3 1.2 C 4.8 km/h
497 04-01-2015 06:45:00 1.1 C 5.07 g/m*3 -0.91 C 6.4 km/h
498 04-01-2015 06:50:00 1.1 C 5.07 g/m*3 1.1 C 1.6 km/h
499 04-01-2015 06:55:00 1.1 C 5.07 g/m*3 1.1 C 1.6 km/h
500 04-01-2015 07:00:00 1.1 C 5.07 g/m*3 1.1 C 4.8 km/h
Sensor: Nr:Datum:Temp:Abs-Feuchte:Windchill:Wind:
Aussen-T/F 501 04-01-2015 07:05:00 1.1 C 5.07 g/m*3 1.1 C 4.8 km/h
502 04-01-2015 07:10:00 1.1 C 5.07 g/m*3 1.1 C 3.2 km/h
503 04-01-2015 07:15:00 1 C 5.03 g/m*3 1 C 3.2 km/h
504 04-01-2015 07:20:00 0.9 C 5 g/m*3 0.9 C 1.6 km/h
505 04-01-2015 07:25:00 0.9 C 5 g/m*3 0.9 C 3.2 km/h
506 04-01-2015 07:30:00 0.9 C 5 g/m*3 0.9 C 3.2 km/h
507 04-01-2015 07:35:00 1 C 5.03 g/m*3 1 C 3.2 km/h
508 04-01-2015 07:40:00 1.1 C 5.07 g/m*3 1.1 C 3.2 km/h
509 04-01-2015 07:45:00 1.2 C 5.1 g/m*3 1.2 C 1.6 km/h
510 04-01-2015 07:50:00 1.1 C 5.07 g/m*3 1.1 C 1.6 km/h
511 04-01-2015 07:55:00 1.1 C 5.07 g/m*3 1.1 C 4.8 km/h
512 04-01-2015 08:00:00 1.1 C 5.07 g/m*3 1.1 C 1.6 km/h
513 04-01-2015 08:05:00 1.2 C 5.1 g/m*3 1.2 C 1.6 km/h
514 04-01-2015 08:10:00 1.2 C 5.1 g/m*3 1.2 C 3.2 km/h
515 04-01-2015 08:15:00 1.2 C 5.1 g/m*3 1.2 C 1.6 km/h
516 04-01-2015 08:20:00 1.2 C 5.1 g/m*3 1.2 C 3.2 km/h
517 04-01-2015 18:15:00 4.1 C 5.89 g/m*3 4.1 C 1.6 km/h
518 04-01-2015 18:20:00 4.1 C 5.89 g/m*3 4.1 C 1.6 km/h
519 04-01-2015 18:25:00 4 C 5.85 g/m*3 4 C 3.2 km/h
520 04-01-2015 18:30:00 4 C 5.85 g/m*3 4 C 1.6 km/h
521 04-01-2015 18:35:00 3.9 C 5.75 g/m*3 3.9 C 4.8 km/h
522 04-01-2015 18:40:00 4 C 5.79 g/m*3 4 C 4.8 km/h
523 04-01-2015 18:45:00 4.1 C 5.76 g/m*3 4.1 C 4.8 km/h
524 04-01-2015 18:50:00 4.2 C 5.73 g/m*3 2.67 C 6.4 km/h
525 04-01-2015 18:55:00 4.3 C 5.71 g/m*3 1.89 C 9.7 km/h
Sensor: Nr:Datum:Temp:Abs-Feuchte:Windchill:Wind:
Aussen-T/F 526 04-01-2015 19:00:00 4.4 C 5.68 g/m*3 4.4 C 3.2 km/h
527 04-01-2015 19:05:00 4.4 C 5.68 g/m*3 4.4 C 3.2 km/h
528 04-01-2015 19:10:00 4.4 C 5.68 g/m*3 2.9 C 6.4 km/h
529 04-01-2015 19:15:00 4.3 C 5.64 g/m*3 2.78 C 6.4 km/h
530 04-01-2015 19:20:00 4.3 C 5.64 g/m*3 4.3 C 1.6 km/h
531 04-01-2015 19:25:00 4.2 C 5.67 g/m*3 4.2 C 1.6 km/h
532 04-01-2015 19:30:00 4.2 C 5.67 g/m*3 4.2 C 4.8 km/h
533 04-01-2015 19:35:00 4.1 C 5.63 g/m*3 2.05 C 8.1 km/h
534 04-01-2015 19:40:00 4.1 C 5.63 g/m*3 4.1 C 3.2 km/h
535 04-01-2015 19:45:00 4.1 C 5.63 g/m*3 4.1 C 1.6 km/h
536 04-01-2015 19:50:00 4 C 5.59 g/m*3 4 C 1.6 km/h
537 04-01-2015 19:55:00 3.9 C 5.62 g/m*3 2.32 C 6.4 km/h
538 04-01-2015 20:00:00 3.9 C 5.62 g/m*3 3.9 C 4.8 km/h
539 04-01-2015 20:05:00 3.9 C 5.62 g/m*3 3.9 C 4.8 km/h
540 04-01-2015 20:10:00 3.8 C 5.58 g/m*3 3.8 C 4.8 km/h
541 04-01-2015 20:15:00 3.8 C 5.58 g/m*3 3.8 C 4.8 km/h
542 04-01-2015 20:20:00 3.7 C 5.61 g/m*3 3.7 C 3.2 km/h
543 04-01-2015 20:25:00 3.7 C 5.61 g/m*3 3.7 C 3.2 km/h
544 04-01-2015 20:30:00 3.6 C 5.57 g/m*3 3.6 C 4.8 km/h
545 04-01-2015 20:35:00 3.6 C 5.63 g/m*3 3.6 C 1.6 km/h
546 04-01-2015 20:40:00 3.6 C 5.63 g/m*3 3.6 C 3.2 km/h
547 04-01-2015 20:45:00 3.6 C 5.63 g/m*3 3.6 C 3.2 km/h
548 04-01-2015 20:50:00 3.6 C 5.63 g/m*3 3.6 C 4.8 km/h
549 04-01-2015 20:55:00 3.6 C 5.63 g/m*3 3.6 C 3.2 km/h
550 04-01-2015 21:00:00 3.7 C 5.67 g/m*3 3.7 C 1.6 km/h
Sensor: Nr:Datum:Temp:Abs-Feuchte:Windchill:Wind:
Aussen-T/F 551 04-01-2015 21:05:00 3.7 C 5.67 g/m*3 3.7 C 3.2 km/h
552 04-01-2015 21:10:00 3.7 C 5.61 g/m*3 3.7 C 3.2 km/h
553 04-01-2015 21:15:00 3.7 C 5.61 g/m*3 3.7 C 3.2 km/h
554 04-01-2015 21:20:00 3.8 C 5.65 g/m*3 3.8 C 3.2 km/h
555 04-01-2015 21:25:00 3.8 C 5.65 g/m*3 3.8 C 3.2 km/h
556 04-01-2015 21:30:00 3.8 C 5.65 g/m*3 2.21 C 6.4 km/h
557 04-01-2015 21:35:00 3.8 C 5.65 g/m*3 3.8 C 4.8 km/h
558 04-01-2015 21:40:00 3.9 C 5.62 g/m*3 2.32 C 6.4 km/h
559 04-01-2015 21:45:00 3.9 C 5.62 g/m*3 3.9 C 3.2 km/h
560 04-01-2015 21:50:00 4 C 5.66 g/m*3 4 C 4.8 km/h
561 04-01-2015 21:55:00 4 C 5.66 g/m*3 4 C 4.8 km/h
562 04-01-2015 22:00:00 3.9 C 5.62 g/m*3 3.9 C 4.8 km/h
563 04-01-2015 22:05:00 3.7 C 5.61 g/m*3 3.7 C 1.6 km/h
564 04-01-2015 22:10:00 3.6 C 5.57 g/m*3 3.6 C 3.2 km/h
565 04-01-2015 22:15:00 3.5 C 5.6 g/m*3 3.5 C 3.2 km/h
566 04-01-2015 22:20:00 3.4 C 5.56 g/m*3 3.4 C 1.6 km/h
567 04-01-2015 22:25:00 3.3 C 5.58 g/m*3 3.3 C 1.6 km/h
568 04-01-2015 22:30:00 3.2 C 5.54 g/m*3 3.2 C 0 km/h
569 04-01-2015 22:35:00 3.2 C 5.6 g/m*3 3.2 C 1.6 km/h
570 04-01-2015 22:40:00 3.2 C 5.6 g/m*3 3.2 C 1.6 km/h
571 04-01-2015 22:45:00 3.2 C 5.6 g/m*3 3.2 C 0 km/h
572 04-01-2015 22:50:00 3.2 C 5.6 g/m*3 3.2 C 0 km/h
573 04-01-2015 22:55:00 3.2 C 5.54 g/m*3 3.2 C 3.2 km/h
574 04-01-2015 23:00:00 3.2 C 5.54 g/m*3 3.2 C 1.6 km/h
575 04-01-2015 23:05:00 3.2 C 5.54 g/m*3 3.2 C 3.2 km/h
Sensor: Nr:Datum:Temp:Abs-Feuchte:Windchill:Wind:
Aussen-T/F 576 04-01-2015 23:10:00 3.3 C 5.58 g/m*3 3.3 C 1.6 km/h
577 04-01-2015 23:15:00 3.3 C 5.58 g/m*3 3.3 C 1.6 km/h
578 04-01-2015 23:20:00 3.3 C 5.58 g/m*3 3.3 C 1.6 km/h
579 04-01-2015 23:25:00 3.2 C 5.54 g/m*3 3.2 C 3.2 km/h
580 04-01-2015 23:30:00 3.2 C 5.48 g/m*3 1.51 C 6.4 km/h
581 04-01-2015 23:35:00 3.2 C 5.54 g/m*3 3.2 C 1.6 km/h
582 04-01-2015 23:40:00 3.2 C 5.48 g/m*3 3.2 C 4.8 km/h
583 04-01-2015 23:45:00 3.3 C 5.52 g/m*3 3.3 C 3.2 km/h
584 04-01-2015 23:50:00 3.3 C 5.46 g/m*3 3.3 C 4.8 km/h
585 04-01-2015 23:55:00 3.4 C 5.44 g/m*3 3.4 C 3.2 km/h
586 05-01-2015 00:00:00 3.5 C 5.47 g/m*3 3.5 C 1.6 km/h
587 05-01-2015 00:05:00 3.4 C 5.5 g/m*3 3.4 C 1.6 km/h
588 05-01-2015 00:10:00 3.3 C 5.46 g/m*3 3.3 C 3.2 km/h
589 05-01-2015 00:15:00 3.2 C 5.42 g/m*3 3.2 C 4.8 km/h
590 05-01-2015 00:20:00 3.2 C 5.42 g/m*3 3.2 C 3.2 km/h
591 05-01-2015 00:25:00 3.1 C 5.45 g/m*3 3.1 C 3.2 km/h
592 05-01-2015 00:30:00 3 C 5.41 g/m*3 3 C 4.8 km/h
593 05-01-2015 00:35:00 2.9 C 5.37 g/m*3 2.9 C 3.2 km/h
594 05-01-2015 00:40:00 2.8 C 5.34 g/m*3 2.8 C 3.2 km/h
595 05-01-2015 00:45:00 2.8 C 5.34 g/m*3 2.8 C 3.2 km/h
596 05-01-2015 00:50:00 2.8 C 5.34 g/m*3 2.8 C 3.2 km/h
597 05-01-2015 00:55:00 2.8 C 5.28 g/m*3 2.8 C 3.2 km/h
598 05-01-2015 01:00:00 2.9 C 5.32 g/m*3 2.9 C 3.2 km/h
599 05-01-2015 01:05:00 2.9 C 5.26 g/m*3 0.64 C 8.1 km/h
600 05-01-2015 01:10:00 2.9 C 5.26 g/m*3 0.64 C 8.1 km/h
Sensor: Nr:Datum:Temp:Abs-Feuchte:Windchill:Wind:
Aussen-T/F 601 05-01-2015 01:15:00 2.9 C 5.26 g/m*3 2.9 C 1.6 km/h
602 05-01-2015 01:20:00 2.8 C 5.22 g/m*3 2.8 C 4.8 km/h
603 05-01-2015 01:25:00 2.7 C 5.24 g/m*3 2.7 C 3.2 km/h
604 05-01-2015 01:30:00 2.6 C 5.21 g/m*3 2.6 C 1.6 km/h
605 05-01-2015 01:35:00 2.6 C 5.21 g/m*3 2.6 C 1.6 km/h
606 05-01-2015 01:40:00 2.5 C 5.23 g/m*3 2.5 C 1.6 km/h
607 05-01-2015 01:45:00 2.4 C 5.2 g/m*3 2.4 C 3.2 km/h
608 05-01-2015 01:50:00 2.3 C 5.16 g/m*3 2.3 C 3.2 km/h
609 05-01-2015 01:55:00 2.2 C 5.13 g/m*3 2.2 C 1.6 km/h
610 05-01-2015 02:00:00 2.1 C 5.15 g/m*3 2.1 C 1.6 km/h
611 05-01-2015 02:05:00 1.9 C 5.08 g/m*3 1.9 C 0 km/h
612 05-01-2015 02:10:00 1.8 C 5.04 g/m*3 1.8 C 0 km/h
613 05-01-2015 02:15:00 1.6 C 4.97 g/m*3 1.6 C 1.6 km/h
614 05-01-2015 02:20:00 1.4 C 4.91 g/m*3 1.4 C 0 km/h
615 05-01-2015 02:25:00 1.3 C 4.93 g/m*3 1.3 C 0 km/h
616 05-01-2015 02:30:00 1.2 C 4.89 g/m*3 1.2 C 1.6 km/h
617 05-01-2015 02:35:00 1.2 C 4.89 g/m*3 1.2 C 1.6 km/h
618 05-01-2015 02:40:00 1.1 C 4.91 g/m*3 1.1 C 3.2 km/h
619 05-01-2015 02:45:00 1.1 C 4.91 g/m*3 1.1 C 1.6 km/h
620 05-01-2015 02:50:00 1.1 C 4.91 g/m*3 1.1 C 1.6 km/h
621 05-01-2015 02:55:00 1.1 C 4.91 g/m*3 1.1 C 1.6 km/h
622 05-01-2015 03:00:00 1 C 4.88 g/m*3 1 C 1.6 km/h
623 05-01-2015 03:05:00 1 C 4.88 g/m*3 1 C 3.2 km/h
624 05-01-2015 03:10:00 1 C 4.88 g/m*3 1 C 3.2 km/h
625 05-01-2015 03:15:00 1 C 4.88 g/m*3 1 C 3.2 km/h
Sensor: Nr:Datum:Temp:Abs-Feuchte:Windchill:Wind:
Aussen-T/F 626 05-01-2015 03:20:00 1 C 4.88 g/m*3 1 C 4.8 km/h
627 05-01-2015 03:25:00 0.9 C 4.85 g/m*3 0.9 C 1.6 km/h
628 05-01-2015 03:30:00 1 C 4.88 g/m*3 1 C 4.8 km/h
629 05-01-2015 03:35:00 1 C 4.88 g/m*3 1 C 0 km/h
630 05-01-2015 03:40:00 0.9 C 4.85 g/m*3 0.9 C 0 km/h
631 05-01-2015 03:45:00 0.8 C 4.81 g/m*3 0.8 C 1.6 km/h
632 05-01-2015 03:50:00 0.8 C 4.81 g/m*3 0.8 C 1.6 km/h
633 05-01-2015 03:55:00 0.7 C 4.78 g/m*3 0.7 C 0 km/h
634 05-01-2015 04:00:00 0.7 C 4.78 g/m*3 0.7 C 0 km/h
635 05-01-2015 04:05:00 0.5 C 4.71 g/m*3 0.5 C 0 km/h
636 05-01-2015 04:10:00 0.4 C 4.68 g/m*3 0.4 C 3.2 km/h
637 05-01-2015 04:15:00 0.3 C 4.65 g/m*3 0.3 C 3.2 km/h
638 05-01-2015 04:20:00 0.2 C 4.62 g/m*3 0.2 C 1.6 km/h
639 05-01-2015 04:25:00 0.1 C 4.59 g/m*3 0.1 C 1.6 km/h
640 05-01-2015 04:30:00 0.1 C 4.59 g/m*3 0.1 C 0 km/h
641 05-01-2015 04:35:00 -0.1 C 4.52 g/m*3 -0.1 C 0 km/h
642 05-01-2015 04:40:00 -0.1 C 4.57 g/m*3 -0.1 C 0 km/h
643 05-01-2015 04:45:00 -0.2 C 4.54 g/m*3 -0.2 C 0 km/h
644 05-01-2015 04:50:00 -0.3 C 4.51 g/m*3 -0.3 C 0 km/h
645 05-01-2015 04:55:00 -0.3 C 4.51 g/m*3 -0.3 C 0 km/h
646 05-01-2015 05:00:00 -0.4 C 4.48 g/m*3 -0.4 C 1.6 km/h
647 05-01-2015 05:05:00 -0.4 C 4.48 g/m*3 -0.4 C 1.6 km/h
648 05-01-2015 05:10:00 -0.4 C 4.48 g/m*3 -0.4 C 0 km/h
649 05-01-2015 05:15:00 -0.4 C 4.48 g/m*3 -0.4 C 0 km/h
650 05-01-2015 05:20:00 -0.4 C 4.48 g/m*3 -0.4 C 0 km/h
Sensor: Nr:Datum:Temp:Abs-Feuchte:Windchill:Wind:
Aussen-T/F 651 05-01-2015 05:25:00 -0.5 C 4.45 g/m*3 -0.5 C 0 km/h
652 05-01-2015 05:30:00 -0.6 C 4.42 g/m*3 -0.6 C 1.6 km/h
653 05-01-2015 05:35:00 -0.6 C 4.46 g/m*3 -0.6 C 0 km/h
654 05-01-2015 05:40:00 -0.6 C 4.46 g/m*3 -0.6 C 1.6 km/h
655 05-01-2015 05:45:00 -0.5 C 4.49 g/m*3 -0.5 C 3.2 km/h
656 05-01-2015 05:50:00 -0.5 C 4.49 g/m*3 -0.5 C 1.6 km/h
657 05-01-2015 05:55:00 -0.5 C 4.49 g/m*3 -0.5 C 0 km/h
658 05-01-2015 06:00:00 -0.5 C 4.49 g/m*3 -0.5 C 1.6 km/h
659 05-01-2015 06:05:00 -0.6 C 4.46 g/m*3 -0.6 C 0 km/h
660 05-01-2015 06:10:00 -0.6 C 4.46 g/m*3 -0.6 C 0 km/h
661 05-01-2015 06:15:00 -0.6 C 4.46 g/m*3 -0.6 C 0 km/h
662 05-01-2015 06:20:00 -0.6 C 4.46 g/m*3 -0.6 C 0 km/h
663 05-01-2015 06:25:00 -0.9 C 4.37 g/m*3 -0.9 C 0 km/h
664 05-01-2015 06:30:00 -1 C 4.34 g/m*3 -1 C 1.6 km/h
665 05-01-2015 06:35:00 -1 C 4.34 g/m*3 -1 C 0 km/h
666 05-01-2015 06:40:00 -1 C 4.34 g/m*3 -1 C 0 km/h
667 05-01-2015 06:45:00 -0.9 C 4.37 g/m*3 -0.9 C 0 km/h
668 05-01-2015 06:50:00 -0.9 C 4.37 g/m*3 -0.9 C 1.6 km/h
669 05-01-2015 06:55:00 -0.9 C 4.37 g/m*3 -0.9 C 1.6 km/h
670 05-01-2015 07:00:00 -0.9 C 4.37 g/m*3 -0.9 C 4.8 km/h
671 05-01-2015 07:05:00 -0.9 C 4.37 g/m*3 -0.9 C 1.6 km/h
672 05-01-2015 07:10:00 -0.8 C 4.4 g/m*3 -0.8 C 1.6 km/h
673 05-01-2015 07:15:00 -0.9 C 4.37 g/m*3 -0.9 C 0 km/h
674 05-01-2015 07:20:00 -0.9 C 4.37 g/m*3 -0.9 C 0 km/h
675 05-01-2015 07:25:00 -1 C 4.34 g/m*3 -1 C 1.6 km/h
Sensor: Nr:Datum:Temp:Abs-Feuchte:Windchill:Wind:
Aussen-T/F 676 05-01-2015 07:30:00 -1 C 4.34 g/m*3 -1 C 0 km/h
677 05-01-2015 07:35:00 -1 C 4.38 g/m*3 -1 C 1.6 km/h
678 05-01-2015 07:40:00 -0.9 C 4.42 g/m*3 -0.9 C 4.8 km/h
679 05-01-2015 07:45:00 -0.8 C 4.45 g/m*3 -3.11 C 6.4 km/h
680 05-01-2015 07:50:00 -0.8 C 4.45 g/m*3 -3.11 C 6.4 km/h
681 05-01-2015 07:55:00 -0.8 C 4.45 g/m*3 -3.11 C 6.4 km/h
682 05-01-2015 08:00:00 -0.8 C 4.45 g/m*3 -3.71 C 8.1 km/h
683 05-01-2015 08:05:00 -0.8 C 4.45 g/m*3 -0.8 C 3.2 km/h
684 05-01-2015 08:10:00 -0.7 C 4.48 g/m*3 -3.59 C 8.1 km/h
685 05-01-2015 08:15:00 -0.7 C 4.48 g/m*3 -2.99 C 6.4 km/h
686 05-01-2015 08:20:00 -0.7 C 4.48 g/m*3 -0.7 C 4.8 km/h
687 05-01-2015 08:25:00 -0.7 C 4.48 g/m*3 -0.7 C 4.8 km/h
688 05-01-2015 08:30:00 -0.7 C 4.48 g/m*3 -0.7 C 4.8 km/h
689 05-01-2015 08:35:00 -0.7 C 4.48 g/m*3 -4.07 C 9.7 km/h
690 05-01-2015 08:40:00 -0.8 C 4.45 g/m*3 -3.71 C 8.1 km/h
691 05-01-2015 08:45:00 -0.8 C 4.45 g/m*3 -0.8 C 4.8 km/h
692 05-01-2015 08:50:00 -0.8 C 4.45 g/m*3 -3.71 C 8.1 km/h
693 05-01-2015 08:55:00 -0.8 C 4.45 g/m*3 -0.8 C 4.8 km/h
694 05-01-2015 09:00:00 -0.8 C 4.45 g/m*3 -0.8 C 4.8 km/h
695 05-01-2015 09:05:00 -0.8 C 4.45 g/m*3 -3.11 C 6.4 km/h
696 05-01-2015 09:10:00 -0.8 C 4.45 g/m*3 -3.11 C 6.4 km/h
697 05-01-2015 09:15:00 -0.8 C 4.45 g/m*3 -3.11 C 6.4 km/h
698 05-01-2015 09:20:00 -0.8 C 4.45 g/m*3 -0.8 C 4.8 km/h
699 05-01-2015 09:25:00 -0.8 C 4.45 g/m*3 -0.8 C 4.8 km/h
700 05-01-2015 09:30:00 -0.8 C 4.45 g/m*3 -0.8 C 3.2 km/h
Sensor: Nr:Datum:Temp:Abs-Feuchte:Windchill:Wind:
Aussen-T/F 701 05-01-2015 09:35:00 -0.8 C 4.45 g/m*3 -3.11 C 6.4 km/h
702 05-01-2015 09:40:00 -0.6 C 4.51 g/m*3 -3.48 C 8.1 km/h
703 05-01-2015 09:45:00 -0.6 C 4.51 g/m*3 -3.95 C 9.7 km/h
704 05-01-2015 09:50:00 -0.6 C 4.51 g/m*3 -0.6 C 4.8 km/h
705 05-01-2015 09:55:00 -0.6 C 4.51 g/m*3 -0.6 C 4.8 km/h
706 05-01-2015 10:00:00 -0.6 C 4.51 g/m*3 -0.6 C 3.2 km/h
707 05-01-2015 10:05:00 -0.6 C 4.51 g/m*3 -0.6 C 3.2 km/h
708 05-01-2015 10:10:00 -0.6 C 4.51 g/m*3 -0.6 C 3.2 km/h
709 05-01-2015 10:15:00 -0.6 C 4.51 g/m*3 -0.6 C 1.6 km/h
710 05-01-2015 10:20:00 -0.6 C 4.51 g/m*3 -2.88 C 6.4 km/h
711 05-01-2015 10:25:00 -0.5 C 4.54 g/m*3 -0.5 C 1.6 km/h
712 05-01-2015 10:30:00 -0.5 C 4.54 g/m*3 -0.5 C 4.8 km/h
713 05-01-2015 10:35:00 -0.5 C 4.54 g/m*3 -2.76 C 6.4 km/h
714 05-01-2015 10:40:00 -0.3 C 4.6 g/m*3 -3.12 C 8.1 km/h
715 05-01-2015 10:45:00 -0.2 C 4.64 g/m*3 -0.2 C 4.8 km/h
716 05-01-2015 10:50:00 -0.2 C 4.64 g/m*3 -0.2 C 3.2 km/h
717 05-01-2015 10:55:00 -0.2 C 4.64 g/m*3 -0.2 C 1.6 km/h
718 05-01-2015 11:00:00 -0.2 C 4.64 g/m*3 -0.2 C 1.6 km/h
719 05-01-2015 11:05:00 -0.2 C 4.64 g/m*3 -0.2 C 3.2 km/h
720 05-01-2015 11:10:00 -0.2 C 4.64 g/m*3 -0.2 C 1.6 km/h
721 05-01-2015 11:50:00 0.2 C 4.77 g/m*3 0.2 C 3.2 km/h
722 05-01-2015 11:55:00 0.2 C 4.77 g/m*3 0.2 C 1.6 km/h
723 05-01-2015 12:00:00 0.2 C 4.77 g/m*3 0.2 C 1.6 km/h
724 05-01-2015 12:05:00 0.2 C 4.77 g/m*3 0.2 C 1.6 km/h
725 05-01-2015 12:10:00 0.2 C 4.77 g/m*3 0.2 C 3.2 km/h
Sensor: Nr:Datum:Temp:Abs-Feuchte:Windchill:Wind:
Aussen-T/F 726 05-01-2015 12:15:00 0.2 C 4.77 g/m*3 0.2 C 1.6 km/h
727 05-01-2015 12:20:00 0.2 C 4.77 g/m*3 0.2 C 1.6 km/h
728 05-01-2015 12:25:00 0.2 C 4.77 g/m*3 0.2 C 1.6 km/h
729 05-01-2015 13:50:00 1.1 C 5.23 g/m*3 1.1 C 3.2 km/h
730 05-01-2015 13:55:00 1.1 C 4.96 g/m*3 1.1 C 4.8 km/h
731 05-01-2015 14:00:00 1.1 C 4.96 g/m*3 1.1 C 3.2 km/h
732 05-01-2015 18:20:00 -0.8 C 4.4 g/m*3 -0.8 C 0 km/h
733 05-01-2015 18:25:00 -0.8 C 4.4 g/m*3 -0.8 C 0 km/h
734 05-01-2015 18:30:00 -0.8 C 4.4 g/m*3 -0.8 C 0 km/h
735 05-01-2015 18:35:00 -0.8 C 4.4 g/m*3 -0.8 C 1.6 km/h
736 05-01-2015 18:40:00 -0.8 C 4.4 g/m*3 -0.8 C 0 km/h
737 05-01-2015 18:45:00 -0.8 C 4.4 g/m*3 -0.8 C 0 km/h
738 05-01-2015 18:50:00 -0.8 C 4.4 g/m*3 -0.8 C 0 km/h
739 05-01-2015 18:55:00 -0.8 C 4.4 g/m*3 -0.8 C 0 km/h
740 05-01-2015 19:00:00 -0.8 C 4.4 g/m*3 -0.8 C 0 km/h
741 05-01-2015 19:05:00 -0.9 C 4.37 g/m*3 -0.9 C 0 km/h
742 05-01-2015 19:10:00 -0.9 C 4.37 g/m*3 -0.9 C 0 km/h
743 05-01-2015 20:10:00 -1.4 C 4.22 g/m*3 -1.4 C 0 km/h
744 05-01-2015 20:15:00 -1.4 C 4.22 g/m*3 -1.4 C 0 km/h
745 05-01-2015 20:20:00 -1.3 C 4.25 g/m*3 -1.3 C 0 km/h
746 05-01-2015 20:25:00 -1.4 C 4.22 g/m*3 -1.4 C 0 km/h
747 05-01-2015 20:30:00 -1.4 C 4.22 g/m*3 -1.4 C 0 km/h
748 05-01-2015 20:35:00 -1.4 C 4.22 g/m*3 -1.4 C 0 km/h
749 05-01-2015 20:40:00 -1.3 C 4.25 g/m*3 -1.3 C 0 km/h
750 05-01-2015 20:45:00 -1.4 C 4.22 g/m*3 -1.4 C 0 km/h
Sensor: Nr:Datum:Temp:Abs-Feuchte:Windchill:Wind:
Aussen-T/F 751 05-01-2015 20:50:00 -1.4 C 4.22 g/m*3 -1.4 C 0 km/h
752 05-01-2015 20:55:00 -1.5 C 4.19 g/m*3 -1.5 C 0 km/h
753 05-01-2015 21:00:00 -1.5 C 4.19 g/m*3 -1.5 C 0 km/h
754 05-01-2015 21:05:00 -1.6 C 4.16 g/m*3 -1.6 C 0 km/h
755 05-01-2015 21:10:00 -1.5 C 4.19 g/m*3 -1.5 C 0 km/h
756 05-01-2015 21:15:00 -1.5 C 4.19 g/m*3 -1.5 C 0 km/h
757 05-01-2015 21:20:00 -1.5 C 4.19 g/m*3 -1.5 C 0 km/h
758 05-01-2015 21:25:00 -1.6 C 4.16 g/m*3 -1.6 C 0 km/h
759 05-01-2015 21:30:00 -1.6 C 4.16 g/m*3 -1.6 C 0 km/h
760 05-01-2015 21:35:00 -1.6 C 4.16 g/m*3 -1.6 C 0 km/h
761 05-01-2015 21:40:00 -1.6 C 4.16 g/m*3 -1.6 C 0 km/h
762 05-01-2015 21:45:00 -1.6 C 4.16 g/m*3 -1.6 C 0 km/h
763 05-01-2015 21:50:00 -1.6 C 4.16 g/m*3 -1.6 C 0 km/h
764 05-01-2015 21:55:00 -1.6 C 4.21 g/m*3 -1.6 C 0 km/h
765 05-01-2015 22:00:00 -1.6 C 4.21 g/m*3 -1.6 C 0 km/h
766 05-01-2015 22:05:00 -1.7 C 4.13 g/m*3 -1.7 C 0 km/h
767 05-01-2015 22:10:00 -1.7 C 4.13 g/m*3 -1.7 C 0 km/h
768 05-01-2015 22:15:00 -1.8 C 4.1 g/m*3 -1.8 C 0 km/h
769 05-01-2015 22:20:00 -1.8 C 4.1 g/m*3 -1.8 C 0 km/h
770 05-01-2015 22:25:00 -1.8 C 4.1 g/m*3 -1.8 C 0 km/h
771 05-01-2015 22:30:00 -1.8 C 4.1 g/m*3 -1.8 C 1.6 km/h
772 05-01-2015 22:35:00 -1.8 C 4.1 g/m*3 -1.8 C 0 km/h
773 05-01-2015 22:40:00 -1.8 C 4.1 g/m*3 -1.8 C 0 km/h
774 06-01-2015 07:55:00 -2.9 C 3.84 g/m*3 -2.9 C 4.8 km/h
775 06-01-2015 08:00:00 -2.9 C 3.84 g/m*3 -2.9 C 3.2 km/h
Sensor: Nr:Datum:Temp:Abs-Feuchte:Windchill:Wind:
Aussen-T/F 776 06-01-2015 08:05:00 -2.9 C 3.84 g/m*3 -2.9 C 1.6 km/h
777 06-01-2015 08:10:00 -2.9 C 3.84 g/m*3 -2.9 C 3.2 km/h
778 06-01-2015 08:15:00 -2.9 C 3.84 g/m*3 -2.9 C 3.2 km/h
779 06-01-2015 13:05:00 -1.4 C 4.26 g/m*3 -1.4 C 3.2 km/h
780 06-01-2015 13:10:00 -1.3 C 4.29 g/m*3 -1.3 C 0 km/h
781 06-01-2015 13:15:00 -1.3 C 4.29 g/m*3 -1.3 C 0 km/h
782 06-01-2015 13:20:00 -1.3 C 4.29 g/m*3 -1.3 C 0 km/h
783 06-01-2015 13:25:00 -1.3 C 4.29 g/m*3 -1.3 C 1.6 km/h
784 06-01-2015 19:40:00 1.1 C 4.7 g/m*3 -2.66 C 12.9 km/h
785 06-01-2015 19:45:00 1.1 C 4.7 g/m*3 -2.97 C 14.5 km/h
786 06-01-2015 19:50:00 1.1 C 4.7 g/m*3 -2.97 C 14.5 km/h
787 06-01-2015 19:55:00 1.1 C 4.7 g/m*3 -2.66 C 12.9 km/h
788 06-01-2015 20:00:00 0.9 C 4.64 g/m*3 -3.21 C 14.5 km/h
789 06-01-2015 20:05:00 0.9 C 4.64 g/m*3 -2.16 C 9.7 km/h
790 06-01-2015 20:10:00 0.8 C 4.61 g/m*3 -4.13 C 19.3 km/h
791 06-01-2015 20:15:00 0.8 C 4.61 g/m*3 -3.02 C 12.9 km/h
792 06-01-2015 20:20:00 0.8 C 4.61 g/m*3 -3.02 C 12.9 km/h
793 06-01-2015 20:25:00 0.8 C 4.61 g/m*3 -2.67 C 11.3 km/h
794 06-01-2015 21:20:00 0.7 C 4.68 g/m*3 -1.95 C 8.1 km/h
795 06-01-2015 21:25:00 0.7 C 4.68 g/m*3 -2.8 C 11.3 km/h
796 06-01-2015 21:30:00 0.7 C 4.68 g/m*3 -2.8 C 11.3 km/h
797 06-01-2015 21:35:00 0.8 C 4.71 g/m*3 -2.28 C 9.7 km/h
798 06-01-2015 21:40:00 0.8 C 4.71 g/m*3 -2.28 C 9.7 km/h
799 06-01-2015 21:45:00 0.8 C 4.71 g/m*3 -2.28 C 9.7 km/h
800 06-01-2015 21:50:00 0.8 C 4.71 g/m*3 -2.67 C 11.3 km/h
Sensor: Nr:Datum:Temp:Abs-Feuchte:Windchill:Wind:
Aussen-T/F 801 06-01-2015 21:55:00 0.8 C 4.71 g/m*3 -3.34 C 14.5 km/h
802 06-01-2015 22:00:00 0.9 C 4.74 g/m*3 -1.14 C 6.4 km/h
803 06-01-2015 22:05:00 1 C 4.78 g/m*3 -2.78 C 12.9 km/h
804 06-01-2015 22:10:00 1 C 4.78 g/m*3 -1.59 C 8.1 km/h
805 06-01-2015 22:15:00 1.1 C 4.81 g/m*3 -1.92 C 9.7 km/h
806 06-01-2015 22:20:00 1.1 C 4.81 g/m*3 -1.48 C 8.1 km/h
807 06-01-2015 22:25:00 1.1 C 4.81 g/m*3 -2.31 C 11.3 km/h
808 06-01-2015 22:30:00 1.2 C 4.84 g/m*3 -0.8 C 6.4 km/h
809 06-01-2015 22:35:00 1.3 C 4.87 g/m*3 -0.68 C 6.4 km/h
810 06-01-2015 22:40:00 1.3 C 4.87 g/m*3 1.3 C 1.6 km/h
811 06-01-2015 22:45:00 1.3 C 4.87 g/m*3 1.3 C 1.6 km/h
812 06-01-2015 22:50:00 1.3 C 4.87 g/m*3 1.3 C 4.8 km/h
813 06-01-2015 22:55:00 1.2 C 4.84 g/m*3 1.2 C 0 km/h
814 06-01-2015 23:00:00 1.2 C 4.84 g/m*3 -1.8 C 9.7 km/h
815 06-01-2015 23:05:00 1.2 C 4.84 g/m*3 1.2 C 4.8 km/h
816 06-01-2015 23:10:00 1.2 C 4.84 g/m*3 1.2 C 3.2 km/h
817 06-01-2015 23:15:00 1.3 C 4.93 g/m*3 -0.68 C 6.4 km/h
818 06-01-2015 23:20:00 1.4 C 4.96 g/m*3 -2.29 C 12.9 km/h
819 06-01-2015 23:25:00 1.6 C 5.03 g/m*3 -1.33 C 9.7 km/h
820 06-01-2015 23:30:00 1.6 C 5.03 g/m*3 1.6 C 4.8 km/h
821 06-01-2015 23:35:00 1.6 C 4.97 g/m*3 -0.33 C 6.4 km/h
822 06-01-2015 23:40:00 1.6 C 4.97 g/m*3 1.6 C 4.8 km/h
823 06-01-2015 23:45:00 1.5 C 4.94 g/m*3 1.5 C 4.8 km/h
824 06-01-2015 23:50:00 1.5 C 4.99 g/m*3 -0.45 C 6.4 km/h
825 06-01-2015 23:55:00 1.5 C 4.99 g/m*3 -2.17 C 12.9 km/h

Legende:
   Min
   Max


Maximal/Minimal-Werte vom 01.01.2015 - 06.01.2015

Sensor Min Max Avg
Temp
(Aussen-T/F)
-2.9 °C
06-01-2015  07:55:00
4.7 °C
02-01-2015  13:25:00
1.89 °C
Abs-Feuchte
(Aussen-T/F)
3.84 g/m*3
06-01-2015  07:55:00
6.18 g/m*3
02-01-2015  16:35:00
5.18 g/m*3
Windchill
(Aussen-T/F)
-4.13 C
06-01-2015  20:10:00
4.4 C
04-01-2015  19:00:00
0.76 C

Die Daten stammen von einer Davis Vantage Pro 2 Wetter-Station und werden unter Linux mit der Software wview2wettercgi und aufbereitet. Alle Angaben erfolgen ohne Gewähr für ihre Vollständigkeit oder Richtigkeit.
Kontakt: Rainer Krienke krienke@uni-koblenz.de . Meine Webseiten an der Uni Koblenz oder privat.
Version: $Revision: 0.78 $